Time;durP1;ratioP1;P1;durP2;ratioP2;P2;SDS_P1;SDS_P2;PMS_P1;PMS_P2;Temp;Humidity;BMP_temperature;BMP_pressure;BME280_temperature;BME280_humidity;BME280_pressure;Samples;Min_cycle;Max_cycle;Signal;HPM_P1;HPM_P2
2023/06/23 10:01:02;;;;;;;;;5.00;5.00;;;;;22.87;56.13;102210.28;5060348;27;45944;-72
2023/06/23 10:03:29;;;;;;;;;3.67;3.67;;;;;23.06;55.75;102210.59;5048662;28;45395;-73
2023/06/23 10:05:58;;;;;;;;;6.33;6.00;;;;;23.26;55.64;102207.03;5042446;28;45549;-72
2023/06/23 10:08:27;;;;;;;;;5.33;4.00;;;;;23.47;55.54;102202.66;5036250;28;45748;-71
2023/06/23 10:10:53;;;;;;;;;4.33;3.00;;;;;23.65;55.55;102192.03;5037144;28;46856;-72
2023/06/23 10:13:20;;;;;;;;;4.00;4.00;;;;;23.84;55.21;102198.56;5040019;28;46838;-71
2023/06/23 10:15:46;;;;;;;;;4.67;4.67;;;;;23.99;55.32;102205.34;5040199;28;45389;-72
2023/06/23 10:18:11;;;;;;;;;5.00;4.33;;;;;24.15;54.91;102201.31;5041416;28;45533;-72
2023/06/23 10:20:38;;;;;;;;;3.00;3.00;;;;;24.27;54.47;102193.91;5041555;28;46204;-72
2023/06/23 10:23:04;;;;;;;;;3.00;3.00;;;;;24.41;54.57;102198.94;5037716;28;45714;-72
2023/06/23 10:25:30;;;;;;;;;3.00;3.00;;;;;24.52;54.26;102189.81;5040304;28;45465;-72
2023/06/23 10:27:59;;;;;;;;;4.00;4.00;;;;;24.63;53.60;102196.97;5039745;28;45495;-72
2023/06/23 10:30:27;;;;;;;;;3.67;3.67;;;;;24.72;53.59;102193.41;5038456;28;46131;-72
2023/06/23 10:32:54;;;;;;;;;6.00;5.00;;;;;24.82;53.53;102184.41;5039673;28;45517;-74
2023/06/23 10:35:21;;;;;;;;;6.00;4.00;;;;;24.90;53.56;102190.03;5037297;28;45409;-74
2023/06/23 10:38:00;;;;;;;;;5.00;3.33;;;;;25.00;53.66;102190.00;5040869;28;45649;-73
2023/06/23 10:40:26;;;;;;;;;4.67;4.00;;;;;25.07;53.04;102185.75;5039407;28;46905;-73
2023/06/23 10:42:56;;;;;;;;;4.00;4.00;;;;;25.15;52.82;102179.56;5037292;28;45558;-74
2023/06/23 10:45:22;;;;;;;;;6.67;6.67;;;;;25.23;52.91;102171.56;5037137;28;45503;-74
2023/06/23 10:47:48;;;;;;;;;4.67;4.67;;;;;25.29;52.68;102172.81;5040012;28;45482;-74
2023/06/23 10:50:14;;;;;;;;;3.33;3.00;;;;;25.36;52.03;102175.81;5039841;28;46308;-75
2023/06/23 10:52:40;;;;;;;;;3.33;3.33;;;;;25.40;52.63;102169.09;5033067;28;45589;-73
2023/06/23 10:55:33;;;;;;;;;5.00;3.67;;;;;25.47;52.59;102182.94;5038769;28;45850;-74
2023/06/23 10:58:13;;;;;;;;;5.00;5.00;;;;;25.51;52.04;102182.50;5037791;28;45507;-74
2023/06/23 11:00:39;;;;;;;;;3.67;3.67;;;;;25.54;51.70;102184.06;5033951;28;47086;-74
2023/06/23 11:03:08;;;;;;;;;6.00;6.00;;;;;25.57;52.00;102186.53;5038051;28;45534;-73
2023/06/23 11:05:39;;;;;;;;;4.00;4.00;;;;;25.59;52.03;102189.09;5036120;28;45511;-74
2023/06/23 11:08:08;;;;;;;;;5.00;5.00;;;;;25.61;51.91;102187.94;5045410;28;45527;-74
2023/06/23 11:11:00;;;;;;;;;6.00;4.00;;;;;25.65;51.65;102186.66;5033433;28;45445;-74
2023/06/23 11:13:46;;;;;;;;;4.00;4.00;;;;;25.68;51.14;102188.22;5032106;28;45423;-73
2023/06/23 11:16:28;;;;;;;;;4.00;4.00;;;;;25.68;51.42;102188.22;5034776;28;45404;-74
2023/06/23 11:18:57;;;;;;;;;4.00;4.00;;;;;25.70;51.26;102188.06;5029239;28;45850;-74
2023/06/23 11:21:30;;;;;;;;;4.33;4.33;;;;;25.73;51.02;102185.03;5034940;28;46262;-74
2023/06/23 11:24:19;;;;;;;;;5.00;5.00;;;;;25.74;51.13;102187.63;5032070;28;45514;-74
2023/06/23 11:27:00;;;;;;;;;3.67;3.67;;;;;25.76;51.68;102193.75;5033747;28;45409;-76
2023/06/23 11:29:25;;;;;;;;;6.00;6.00;;;;;25.78;51.26;102193.59;5028385;28;45409;-77
2023/06/23 11:32:12;;;;;;;;;3.00;3.00;;;;;25.80;51.25;102197.06;5023790;28;46147;-77
2023/06/23 11:34:57;;;;;;;;;3.67;3.67;;;;;25.83;51.31;102183.13;5024083;28;45439;-77
2023/06/23 11:37:28;;;;;;;;;2.00;2.00;;;;;25.87;52.10;102183.72;5035577;28;45487;-75
2023/06/23 11:39:54;;;;;;;;;4.00;4.00;;;;;25.90;52.16;102181.53;5026219;28;45838;-77
2023/06/23 11:42:21;;;;;;;;;4.00;2.33;;;;;25.94;52.47;102187.53;5031065;28;45925;-76
2023/06/23 11:44:48;;;;;;;;;5.67;4.00;;;;;25.94;52.48;102181.25;5021836;28;45518;-76
2023/06/23 11:47:13;;;;;;;;;3.33;3.33;;;;;25.97;52.63;102176.38;5029196;28;45507;-77
2023/06/23 11:49:39;;;;;;;;;4.00;4.00;;;;;25.98;52.69;102175.34;5024503;28;45454;-76
2023/06/23 11:52:05;;;;;;;;;5.00;5.00;;;;;25.99;52.82;102174.34;5022755;28;45969;-78
2023/06/23 11:54:38;;;;;;;;;4.33;4.33;;;;;26.02;52.91;102173.19;5017967;28;45384;-76
2023/06/23 11:57:04;;;;;;;;;3.67;2.67;;;;;26.03;52.67;102166.72;5032131;28;45494;-77
2023/06/23 11:59:34;;;;;;;;;3.00;3.00;;;;;26.04;53.20;102172.00;5027240;28;45829;-78
2023/06/23 12:02:00;;;;;;;;;3.00;3.00;;;;;26.04;53.17;102172.00;5030574;28;45632;-76
2023/06/23 12:04:25;;;;;;;;;3.00;3.00;;;;;26.05;52.56;102170.16;5017103;28;45565;-77
2023/06/23 12:06:52;;;;;;;;;7.33;4.67;;;;;26.08;53.02;102177.16;5022384;28;45538;-77
2023/06/23 12:09:20;;;;;;;;;4.00;4.00;;;;;26.10;52.53;102167.84;5019247;28;45632;-79
2023/06/23 12:11:47;;;;;;;;;4.33;4.33;;;;;26.10;53.28;102173.28;5029917;28;45566;-78
2023/06/23 12:14:13;;;;;;;;;4.00;4.00;;;;;26.12;52.41;102176.69;5021780;28;45546;-78
2023/06/23 12:16:38;;;;;;;;;2.33;2.33;;;;;26.13;52.44;102174.84;5025526;28;45645;-78
2023/06/23 12:19:04;;;;;;;;;5.33;4.00;;;;;26.13;52.14;102173.00;5030549;28;46145;-78
2023/06/23 12:21:29;;;;;;;;;3.00;3.00;;;;;26.11;51.69;102166.00;5023284;28;45479;-79
2023/06/23 12:23:57;;;;;;;;;7.33;5.67;;;;;26.12;51.50;102162.25;5030308;28;52118;-80
2023/06/23 12:26:23;;;;;;;;;7.33;4.00;;;;;26.09;51.30;102166.13;5029075;28;45655;-77
2023/06/23 12:28:48;;;;;;;;;3.00;3.00;;;;;26.07;51.10;102162.69;5026011;28;47135;-75
2023/06/23 12:31:27;;;;;;;;;5.00;5.00;;;;;26.06;51.15;102163.72;5020932;28;45710;-75
2023/06/23 12:33:52;;;;;;;;;3.00;3.00;;;;;26.06;50.81;102163.72;5026284;28;45791;-76
2023/06/23 12:36:18;;;;;;;;;3.00;3.00;;;;;26.04;51.18;102163.03;5034628;28;45503;-87
2023/06/23 12:38:44;;;;;;;;;7.00;5.33;;;;;26.05;51.14;102153.84;5030102;28;45569;-78
2023/06/23 12:41:18;;;;;;;;;4.00;4.00;;;;;26.08;50.87;102150.84;5030474;28;45752;-75
2023/06/23 12:43:45;;;;;;;;;4.00;4.00;;;;;26.08;50.57;102152.69;5027596;28;45547;-75
2023/06/23 12:46:11;;;;;;;;;5.00;4.00;;;;;26.05;50.66;102143.81;5023948;28;45535;-77
2023/06/23 12:48:40;;;;;;;;;5.00;5.00;;;;;26.08;50.74;102144.53;5025714;28;45482;-76
2023/06/23 12:51:06;;;;;;;;;6.00;4.00;;;;;26.07;51.22;102134.66;5018027;28;46509;-78
2023/06/23 12:53:32;;;;;;;;;4.00;4.00;;;;;26.10;50.57;102137.91;5017973;28;45459;-74
2023/06/23 12:55:57;;;;;;;;;6.33;4.33;;;;;26.11;51.02;102142.34;5036109;28;48225;-74
2023/06/23 12:58:23;;;;;;;;;5.33;4.33;;;;;26.13;51.15;102139.47;5023535;28;46733;-74
2023/06/23 13:00:48;;;;;;;;;6.33;4.00;;;;;26.14;51.03;102143.91;5027279;28;45490;-75
2023/06/23 13:03:14;;;;;;;;;6.00;4.67;;;;;26.13;50.89;102134.03;5023434;28;45480;-74
2023/06/23 13:05:40;;;;;;;;;4.33;4.00;;;;;26.12;50.26;102138.59;5018169;28;45808;-76
2023/06/23 13:08:09;;;;;;;;;3.67;3.67;;;;;26.13;50.91;102134.03;5032468;28;45686;-80
2023/06/23 13:10:38;;;;;;;;;6.00;4.67;;;;;26.14;50.25;102135.75;5036114;28;46245;-78
2023/06/23 13:13:03;;;;;;;;;4.67;4.00;;;;;26.14;50.76;102135.75;5022350;28;46230;-78
2023/06/23 13:15:31;;;;;;;;;6.00;4.33;;;;;26.15;50.68;102135.59;5021876;28;45400;-78
2023/06/23 13:17:57;;;;;;;;;3.67;3.67;;;;;26.17;50.10;102133.56;5020674;28;46034;-78
2023/06/23 13:20:22;;;;;;;;;5.00;5.00;;;;;26.22;50.51;102135.84;5021557;28;46066;-81
2023/06/23 13:22:47;;;;;;;;;7.33;4.67;;;;;26.25;50.31;102135.56;5027000;28;45553;-78
2023/06/23 13:25:13;;;;;;;;;5.67;5.00;;;;;26.28;50.37;102135.25;5026085;28;53885;-78
2023/06/23 13:27:39;;;;;;;;;3.00;3.00;;;;;26.33;50.38;102133.94;5019169;28;45543;-77
2023/06/23 13:30:06;;;;;;;;;4.00;4.00;;;;;26.36;49.70;102131.75;5026234;28;46001;-88
2023/06/23 13:32:31;;;;;;;;;2.00;2.00;;;;;26.37;50.15;102129.91;5024439;28;45915;-81
2023/06/23 13:34:56;;;;;;;;;5.00;5.00;;;;;26.40;50.15;102133.16;5029662;28;45697;-79
2023/06/23 13:37:22;;;;;;;;;4.00;4.00;;;;;26.43;50.00;102124.69;5018157;28;45384;-81
2023/06/23 13:39:47;;;;;;;;;3.67;2.67;;;;;26.46;50.03;102128.97;5025384;28;46430;-88
2023/06/23 13:42:12;;;;;;;;;3.00;3.00;;;;;26.49;50.02;102133.25;5030308;28;45720;-82
2023/06/23 13:44:38;;;;;;;;;3.67;3.00;;;;;26.50;49.31;102121.34;5030251;28;45843;-81
2023/06/23 13:47:03;;;;;;;;;3.00;3.00;;;;;26.52;49.16;102132.94;5020461;28;45525;-83
2023/06/23 13:49:29;;;;;;;;;6.00;4.67;;;;;26.53;49.77;102130.03;5027722;28;46022;-90
2023/06/23 13:51:54;;;;;;;;;3.67;3.67;;;;;26.54;49.21;102128.19;5029124;28;45541;-93
2023/06/23 13:54:20;;;;;;;;;1.67;1.67;;;;;26.56;49.79;102127.03;5021624;28;45495;-81
2023/06/23 13:56:45;;;;;;;;;7.00;5.33;;;;;26.57;49.81;102126.00;5028209;28;45521;-87
2023/06/23 13:59:10;;;;;;;;;4.00;4.00;;;;;26.58;49.02;102122.25;5023122;28;46108;-86
2023/06/23 14:01:36;;;;;;;;;3.00;3.00;;;;;26.58;49.66;102122.25;5028947;28;45781;-78
2023/06/23 14:04:01;;;;;;;;;5.67;4.00;;;;;26.60;49.07;102116.66;5016673;28;45652;-75
2023/06/23 14:06:26;;;;;;;;;5.33;4.00;;;;;26.61;49.18;102117.53;5017012;28;54519;-79
2023/06/23 14:08:51;;;;;;;;;4.67;4.67;;;;;26.59;49.62;102109.53;5013668;28;45969;-77
2023/06/23 14:11:18;;;;;;;;;4.00;4.00;;;;;26.62;49.54;102122.84;5019812;28;45429;-77
2023/06/23 14:13:43;;;;;;;;;3.33;3.33;;;;;26.63;49.60;102119.09;5024049;28;45635;-77
2023/06/23 14:16:12;;;;;;;;;2.67;2.67;;;;;26.65;49.41;102116.22;5017928;28;45927;-76
2023/06/23 14:18:38;;;;;;;;;3.67;3.33;;;;;26.63;49.57;102110.91;5020808;28;47200;-77
2023/06/23 14:21:03;;;;;;;;;4.00;4.00;;;;;26.66;49.43;102110.63;5025836;28;45403;-76
2023/06/23 14:23:29;;;;;;;;;4.67;4.67;;;;;26.68;49.20;102114.03;5031462;28;45457;-77
2023/06/23 14:25:55;;;;;;;;;7.33;5.00;;;;;26.69;48.91;102112.16;5023845;28;60769;-77
2023/06/23 14:28:20;;;;;;;;;4.00;4.00;;;;;26.70;49.58;102114.72;5015451;28;46071;-77
2023/06/23 14:30:45;;;;;;;;;5.00;4.00;;;;;26.70;48.81;102112.00;5017148;28;45592;-77
2023/06/23 14:33:11;;;;;;;;;4.33;3.33;;;;;26.72;49.36;102116.44;5015242;28;45440;-77
2023/06/23 14:35:36;;;;;;;;;5.00;5.00;;;;;26.72;48.69;102120.00;5018047;28;45452;-78
2023/06/23 14:38:05;;;;;;;;;3.00;3.00;;;;;26.72;49.35;102117.28;5016778;28;45322;-75
2023/06/23 14:40:34;;;;;;;;;3.33;3.00;;;;;26.70;49.27;102122.88;5018628;28;45507;-75
2023/06/23 14:43:00;;;;;;;;;3.67;2.67;;;;;26.71;48.86;102118.31;5021382;28;45642;-75
2023/06/23 14:45:34;;;;;;;;;3.67;3.00;;;;;26.73;49.30;102123.59;5049853;28;45526;-76
2023/06/23 14:47:59;;;;;;;;;3.00;3.00;;;;;26.72;48.79;102119.16;5021488;28;47207;-77
2023/06/23 14:50:24;;;;;;;;;4.33;4.00;;;;;26.73;49.36;102118.16;5029884;28;46803;-78
2023/06/23 14:52:50;;;;;;;;;4.00;4.00;;;;;26.73;48.89;102123.59;5028074;28;45381;-77
2023/06/23 14:55:15;;;;;;;;;3.00;3.00;;;;;26.73;48.60;102118.97;5030902;28;45787;-77
2023/06/23 14:57:40;;;;;;;;;4.00;4.00;;;;;26.74;48.98;102117.13;5028281;28;45654;-80
2023/06/23 15:00:07;;;;;;;;;4.00;4.00;;;;;26.74;48.57;102112.56;5027483;28;46967;-77
2023/06/23 15:02:32;;;;;;;;;4.00;4.00;;;;;26.73;49.17;102118.97;5023316;28;45631;-76
2023/06/23 15:04:58;;;;;;;;;3.00;3.00;;;;;26.75;48.46;102116.97;5017888;28;52338;-77
2023/06/23 15:07:23;;;;;;;;;7.00;6.00;;;;;26.76;48.95;102120.56;5027553;28;51633;-76
2023/06/23 15:09:48;;;;;;;;;5.33;5.00;;;;;26.77;48.78;102120.38;5030476;28;45833;-75
2023/06/23 15:12:14;;;;;;;;;4.00;4.00;;;;;26.77;49.17;102108.66;5031240;28;45677;-76
2023/06/23 15:14:39;;;;;;;;;4.00;4.00;;;;;26.76;48.62;102106.94;5027604;28;48001;-76
2023/06/23 15:17:05;;;;;;;;;4.00;3.67;;;;;26.76;48.52;102105.06;5028678;28;46375;-76
2023/06/23 15:19:30;;;;;;;;;7.00;7.00;;;;;26.74;48.65;102103.50;5030030;28;45680;-77
2023/06/23 15:21:55;;;;;;;;;5.33;5.33;;;;;26.72;49.33;102106.38;5028729;28;47964;-77
2023/06/23 15:24:21;;;;;;;;;4.00;4.00;;;;;26.70;49.08;102106.53;5032853;28;45402;-77
2023/06/23 15:26:46;;;;;;;;;4.67;3.67;;;;;26.66;49.19;102102.44;5030004;28;45439;-77
2023/06/23 15:29:12;;;;;;;;;5.00;5.00;;;;;26.65;48.69;102100.72;5023188;28;45587;-77
2023/06/23 15:31:37;;;;;;;;;4.67;3.00;;;;;26.60;48.93;102092.16;5030041;28;45874;-77
2023/06/23 15:34:02;;;;;;;;;4.67;3.67;;;;;26.61;48.83;102103.91;5032546;28;45427;-77
2023/06/23 15:36:27;;;;;;;;;3.00;3.00;;;;;26.60;49.22;102107.66;5031063;28;59305;-77
2023/06/23 15:38:53;;;;;;;;;4.00;3.00;;;;;26.58;49.10;102095.03;5033945;28;45509;-77
2023/06/23 15:41:18;;;;;;;;;4.00;4.00;;;;;26.56;48.98;102093.47;5030078;28;45378;-78
2023/06/23 15:43:43;;;;;;;;;4.67;4.67;;;;;26.54;49.02;102096.38;5032921;28;45590;-77
2023/06/23 15:46:09;;;;;;;;;6.00;6.00;;;;;26.53;50.06;102093.81;5024521;28;45610;-74
2023/06/23 15:48:34;;;;;;;;;5.00;3.00;;;;;26.52;50.37;102092.94;5028194;28;46669;-75
2023/06/23 15:51:00;;;;;;;;;5.00;3.33;;;;;26.53;50.36;102085.66;5030793;28;45632;-76
2023/06/23 15:53:25;;;;;;;;;5.00;5.00;;;;;26.54;49.80;102085.50;5019334;28;45926;-75
2023/06/23 15:55:51;;;;;;;;;4.67;4.67;;;;;26.54;50.30;102084.63;5020524;28;46265;-75
2023/06/23 15:58:16;;;;;;;;;5.33;5.00;;;;;26.54;50.25;102090.06;5018431;28;45606;-74
2023/06/23 16:00:42;;;;;;;;;3.67;3.67;;;;;26.57;50.38;102087.88;5017427;28;48548;-75
2023/06/23 16:03:07;;;;;;;;;2.67;2.67;;;;;26.56;49.72;102088.03;5026130;28;45353;-75
2023/06/23 16:05:34;;;;;;;;;5.00;5.00;;;;;26.58;50.32;102077.88;5021700;28;47226;-76
2023/06/23 16:07:59;;;;;;;;;6.33;4.67;;;;;26.57;50.20;102085.16;5023911;28;45400;-75
2023/06/23 16:10:25;;;;;;;;;5.00;5.00;;;;;26.59;50.30;102085.00;5026840;28;46450;-73
2023/06/23 16:12:50;;;;;;;;;4.00;3.00;;;;;26.59;49.90;102085.00;5026178;28;45525;-77
2023/06/23 16:15:15;;;;;;;;;4.00;4.00;;;;;26.61;49.81;102074.84;5024000;28;63151;-73
2023/06/23 16:17:41;;;;;;;;;3.33;3.33;;;;;26.61;50.07;102074.84;5025228;28;45652;-73
2023/06/23 16:20:08;;;;;;;;;3.67;3.67;;;;;26.64;49.99;102081.84;5028662;28;45931;-74
2023/06/23 16:22:34;;;;;;;;;4.33;3.00;;;;;26.65;49.70;102081.66;5021372;28;45524;-73
2023/06/23 16:25:01;;;;;;;;;4.33;4.33;;;;;26.66;49.68;102077.06;5017792;28;45553;-77
2023/06/23 16:27:27;;;;;;;;;5.00;5.00;;;;;26.68;49.70;102077.75;5020218;28;45598;-75
2023/06/23 16:29:52;;;;;;;;;4.67;4.67;;;;;26.68;49.71;102086.78;5012641;28;45532;-76
2023/06/23 16:32:18;;;;;;;;;4.00;4.00;;;;;26.69;49.50;102074.03;5018198;28;45767;-76
2023/06/23 16:34:44;;;;;;;;;4.67;4.00;;;;;26.70;49.55;102084.75;5020104;28;45487;-75
2023/06/23 16:37:09;;;;;;;;;3.67;3.67;;;;;26.71;49.03;102082.91;5014027;28;45495;-75
2023/06/23 16:39:34;;;;;;;;;5.00;5.00;;;;;26.70;48.98;102086.63;5013151;28;45616;-74
2023/06/23 16:42:01;;;;;;;;;5.67;5.33;;;;;26.70;49.58;102087.47;5021330;28;46228;-74
2023/06/23 16:44:26;;;;;;;;;4.33;4.33;;;;;26.70;48.84;102082.03;5021098;28;46101;-76
2023/06/23 16:46:52;;;;;;;;;3.00;3.00;;;;;26.73;49.64;102082.75;5013818;28;45628;-78
2023/06/23 16:49:17;;;;;;;;;5.67;4.00;;;;;26.72;49.32;102083.75;5014073;28;45808;-74
2023/06/23 16:51:44;;;;;;;;;4.00;4.00;;;;;26.73;48.89;102080.84;5019982;28;45510;-75
2023/06/23 16:54:09;;;;;;;;;3.67;3.33;;;;;26.75;49.22;102089.75;5018247;28;45861;-75
2023/06/23 16:56:35;;;;;;;;;6.00;5.00;;;;;26.77;49.15;102082.25;5016423;28;45687;-75
2023/06/23 16:59:01;;;;;;;;;5.67;3.67;;;;;26.76;48.57;102083.28;5013674;28;45525;-77
2023/06/23 17:01:26;;;;;;;;;6.00;5.67;;;;;26.78;48.67;102096.75;5016400;28;45657;-77
2023/06/23 17:03:51;;;;;;;;;3.67;3.67;;;;;26.78;48.56;102083.13;5017854;28;45680;-77
2023/06/23 17:06:17;;;;;;;;;6.67;5.00;;;;;26.79;48.39;102090.28;5014228;28;45631;-76
2023/06/23 17:08:42;;;;;;;;;5.33;5.33;;;;;26.80;49.02;102086.53;5013987;28;57526;-79
2023/06/23 17:11:08;;;;;;;;;3.00;3.00;;;;;26.80;49.11;102089.25;5018075;28;45798;-74
2023/06/23 17:13:33;;;;;;;;;4.00;4.00;;;;;26.82;48.59;102084.53;5019837;28;45476;-75
2023/06/23 17:15:58;;;;;;;;;5.00;5.00;;;;;26.83;49.07;102088.94;5014666;28;45600;-75
2023/06/23 17:18:23;;;;;;;;;6.33;3.33;;;;;26.83;48.16;102092.53;5025060;28;46199;-76
